sensor_id;sensor_type;location;lat;lon;timestamp;temperature;humidity
31113;DHT22;17763;48.730;9.136;2022-11-15T00:00:46;9.70;99.90
31113;DHT22;17763;48.730;9.136;2022-11-15T00:03:19;9.70;99.90
31113;DHT22;17763;48.730;9.136;2022-11-15T00:05:46;9.70;99.90
31113;DHT22;17763;48.730;9.136;2022-11-15T00:08:12;9.70;99.90
31113;DHT22;17763;48.730;9.136;2022-11-15T00:10:37;9.70;99.90
31113;DHT22;17763;48.730;9.136;2022-11-15T00:13:11;9.70;99.90
31113;DHT22;17763;48.730;9.136;2022-11-15T00:15:40;9.70;99.90
31113;DHT22;17763;48.730;9.136;2022-11-15T00:18:12;9.70;99.90
31113;DHT22;17763;48.730;9.136;2022-11-15T00:20:38;9.70;99.90
31113;DHT22;17763;48.730;9.136;2022-11-15T00:23:04;9.80;99.90
31113;DHT22;17763;48.730;9.136;2022-11-15T00:25:30;9.70;99.90
31113;DHT22;17763;48.730;9.136;2022-11-15T00:27:59;9.80;99.90
31113;DHT22;17763;48.730;9.136;2022-11-15T00:30:25;9.80;99.90
31113;DHT22;17763;48.730;9.136;2022-11-15T00:32:53;9.80;99.90
31113;DHT22;17763;48.730;9.136;2022-11-15T00:35:20;9.80;99.90
31113;DHT22;17763;48.730;9.136;2022-11-15T00:37:46;9.80;99.90
31113;DHT22;17763;48.730;9.136;2022-11-15T00:40:13;9.80;99.90
31113;DHT22;17763;48.730;9.136;2022-11-15T00:42:39;9.80;99.90
31113;DHT22;17763;48.730;9.136;2022-11-15T00:45:08;9.70;99.90
31113;DHT22;17763;48.730;9.136;2022-11-15T00:47:36;9.70;99.90
31113;DHT22;17763;48.730;9.136;2022-11-15T00:50:02;9.70;99.90
31113;DHT22;17763;48.730;9.136;2022-11-15T00:52:27;9.70;99.90
31113;DHT22;17763;48.730;9.136;2022-11-15T00:54:53;9.70;99.90
31113;DHT22;17763;48.730;9.136;2022-11-15T00:57:18;9.80;99.90
31113;DHT22;17763;48.730;9.136;2022-11-15T00:59:44;9.70;99.90
31113;DHT22;17763;48.730;9.136;2022-11-15T01:02:12;9.70;99.90
31113;DHT22;17763;48.730;9.136;2022-11-15T01:04:40;9.70;99.90
31113;DHT22;17763;48.730;9.136;2022-11-15T01:07:05;9.70;99.90
31113;DHT22;17763;48.730;9.136;2022-11-15T01:09:31;9.70;99.90
31113;DHT22;17763;48.730;9.136;2022-11-15T01:12:01;9.70;99.90
31113;DHT22;17763;48.730;9.136;2022-11-15T01:14:27;9.70;99.90
31113;DHT22;17763;48.730;9.136;2022-11-15T01:16:53;9.70;99.90
31113;DHT22;17763;48.730;9.136;2022-11-15T01:19:18;9.70;99.90
31113;DHT22;17763;48.730;9.136;2022-11-15T01:21:49;9.70;99.90
31113;DHT22;17763;48.730;9.136;2022-11-15T01:24:15;9.70;99.90
31113;DHT22;17763;48.730;9.136;2022-11-15T01:26:41;9.70;99.90
31113;DHT22;17763;48.730;9.136;2022-11-15T01:29:06;9.70;99.90
31113;DHT22;17763;48.730;9.136;2022-11-15T01:31:34;9.70;99.90
31113;DHT22;17763;48.730;9.136;2022-11-15T01:34:00;9.70;99.90
31113;DHT22;17763;48.730;9.136;2022-11-15T01:36:26;9.70;99.90
31113;DHT22;17763;48.730;9.136;2022-11-15T01:38:58;9.70;99.90
31113;DHT22;17763;48.730;9.136;2022-11-15T01:41:27;9.70;99.90
31113;DHT22;17763;48.730;9.136;2022-11-15T01:47:30;9.70;99.90
31113;DHT22;17763;48.730;9.136;2022-11-15T01:50:06;9.70;99.90
31113;DHT22;17763;48.730;9.136;2022-11-15T01:52:38;9.70;99.90
31113;DHT22;17763;48.730;9.136;2022-11-15T01:57:41;9.70;99.90
31113;DHT22;17763;48.730;9.136;2022-11-15T02:00:13;9.70;99.90
31113;DHT22;17763;48.730;9.136;2022-11-15T02:02:39;9.70;99.90
31113;DHT22;17763;48.730;9.136;2022-11-15T02:05:06;9.70;99.90
31113;DHT22;17763;48.730;9.136;2022-11-15T02:07:35;9.70;99.90
31113;DHT22;17763;48.730;9.136;2022-11-15T02:10:17;9.70;99.90
31113;DHT22;17763;48.730;9.136;2022-11-15T02:12:43;9.70;99.90
31113;DHT22;17763;48.730;9.136;2022-11-15T02:15:10;9.70;99.90
31113;DHT22;17763;48.730;9.136;2022-11-15T02:20:20;9.70;99.90
31113;DHT22;17763;48.730;9.136;2022-11-15T02:23:26;9.70;99.90
31113;DHT22;17763;48.730;9.136;2022-11-15T02:31:59;9.70;99.90
31113;DHT22;17763;48.730;9.136;2022-11-15T02:40:16;9.60;99.90
31113;DHT22;17763;48.730;9.136;2022-11-15T02:43:12;9.60;99.90
31113;DHT22;17763;48.730;9.136;2022-11-15T02:46:14;9.60;99.90
31113;DHT22;17763;48.730;9.136;2022-11-15T02:48:47;9.60;99.90
31113;DHT22;17763;48.730;9.136;2022-11-15T02:51:13;9.60;99.90
31113;DHT22;17763;48.730;9.136;2022-11-15T02:53:40;9.60;99.90
31113;DHT22;17763;48.730;9.136;2022-11-15T02:56:09;9.60;99.90
31113;DHT22;17763;48.730;9.136;2022-11-15T03:01:19;9.60;99.90
31113;DHT22;17763;48.730;9.136;2022-11-15T03:09:37;9.50;99.90
31113;DHT22;17763;48.730;9.136;2022-11-15T03:12:42;9.50;99.90
31113;DHT22;17763;48.730;9.136;2022-11-15T03:15:07;9.50;99.90
31113;DHT22;17763;48.730;9.136;2022-11-15T03:17:39;9.50;99.90
31113;DHT22;17763;48.730;9.136;2022-11-15T03:20:10;9.40;99.90
31113;DHT22;17763;48.730;9.136;2022-11-15T03:22:40;9.50;99.90
31113;DHT22;17763;48.730;9.136;2022-11-15T03:25:11;9.40;99.90
31113;DHT22;17763;48.730;9.136;2022-11-15T03:27:44;9.40;99.90
31113;DHT22;17763;48.730;9.136;2022-11-15T03:30:16;9.40;99.90
31113;DHT22;17763;48.730;9.136;2022-11-15T03:32:49;9.40;99.90
31113;DHT22;17763;48.730;9.136;2022-11-15T03:35:21;9.40;99.90
31113;DHT22;17763;48.730;9.136;2022-11-15T03:38:05;9.30;99.90
31113;DHT22;17763;48.730;9.136;2022-11-15T03:40:39;9.30;99.90
31113;DHT22;17763;48.730;9.136;2022-11-15T03:43:33;9.30;99.90
31113;DHT22;17763;48.730;9.136;2022-11-15T03:46:04;9.30;99.90
31113;DHT22;17763;48.730;9.136;2022-11-15T03:48:37;9.30;99.90
31113;DHT22;17763;48.730;9.136;2022-11-15T03:51:07;9.30;99.90
31113;DHT22;17763;48.730;9.136;2022-11-15T03:53:33;9.30;99.90
31113;DHT22;17763;48.730;9.136;2022-11-15T03:55:59;9.30;99.90
31113;DHT22;17763;48.730;9.136;2022-11-15T03:58:27;9.30;99.90
31113;DHT22;17763;48.730;9.136;2022-11-15T04:00:52;9.30;99.90
31113;DHT22;17763;48.730;9.136;2022-11-15T04:03:18;9.30;99.90
31113;DHT22;17763;48.730;9.136;2022-11-15T04:05:44;9.30;99.90
31113;DHT22;17763;48.730;9.136;2022-11-15T04:08:09;9.30;99.90
31113;DHT22;17763;48.730;9.136;2022-11-15T04:10:37;9.30;99.90
31113;DHT22;17763;48.730;9.136;2022-11-15T04:13:05;9.30;99.90
31113;DHT22;17763;48.730;9.136;2022-11-15T04:15:30;9.30;99.90
31113;DHT22;17763;48.730;9.136;2022-11-15T04:17:57;9.30;99.90
31113;DHT22;17763;48.730;9.136;2022-11-15T04:23:14;9.30;99.90
31113;DHT22;17763;48.730;9.136;2022-11-15T04:26:01;9.30;99.90
31113;DHT22;17763;48.730;9.136;2022-11-15T04:28:27;9.30;99.90
31113;DHT22;17763;48.730;9.136;2022-11-15T04:30:56;9.30;99.90
31113;DHT22;17763;48.730;9.136;2022-11-15T04:33:22;9.30;99.90
31113;DHT22;17763;48.730;9.136;2022-11-15T04:35:47;9.30;99.90
31113;DHT22;17763;48.730;9.136;2022-11-15T04:38:38;9.30;99.90
31113;DHT22;17763;48.730;9.136;2022-11-15T04:41:04;9.30;99.90
31113;DHT22;17763;48.730;9.136;2022-11-15T04:43:29;9.30;99.90
31113;DHT22;17763;48.730;9.136;2022-11-15T04:45:55;9.30;99.90
31113;DHT22;17763;48.730;9.136;2022-11-15T04:48:21;9.30;99.90
31113;DHT22;17763;48.730;9.136;2022-11-15T04:50:54;9.30;99.90
31113;DHT22;17763;48.730;9.136;2022-11-15T04:53:20;9.30;99.90
31113;DHT22;17763;48.730;9.136;2022-11-15T04:55:46;9.30;99.90
31113;DHT22;17763;48.730;9.136;2022-11-15T04:58:12;9.20;99.90
31113;DHT22;17763;48.730;9.136;2022-11-15T05:00:40;9.20;99.90
31113;DHT22;17763;48.730;9.136;2022-11-15T05:03:06;9.20;99.90
31113;DHT22;17763;48.730;9.136;2022-11-15T05:05:50;9.20;99.90
31113;DHT22;17763;48.730;9.136;2022-11-15T05:08:15;9.20;99.90
31113;DHT22;17763;48.730;9.136;2022-11-15T05:10:41;9.20;99.90
31113;DHT22;17763;48.730;9.136;2022-11-15T05:13:07;9.20;99.90
31113;DHT22;17763;48.730;9.136;2022-11-15T05:15:35;9.10;99.90
31113;DHT22;17763;48.730;9.136;2022-11-15T05:18:00;9.20;99.90
31113;DHT22;17763;48.730;9.136;2022-11-15T05:20:26;9.20;99.90
31113;DHT22;17763;48.730;9.136;2022-11-15T05:22:53;9.20;99.90
31113;DHT22;17763;48.730;9.136;2022-11-15T05:25:22;9.20;99.90
31113;DHT22;17763;48.730;9.136;2022-11-15T05:27:47;9.20;99.90
31113;DHT22;17763;48.730;9.136;2022-11-15T05:30:16;9.10;99.90
31113;DHT22;17763;48.730;9.136;2022-11-15T05:32:44;9.10;99.90
31113;DHT22;17763;48.730;9.136;2022-11-15T05:35:20;9.10;99.90
31113;DHT22;17763;48.730;9.136;2022-11-15T05:37:47;9.10;99.90
31113;DHT22;17763;48.730;9.136;2022-11-15T05:40:15;9.10;99.90
31113;DHT22;17763;48.730;9.136;2022-11-15T05:42:41;9.10;99.90
31113;DHT22;17763;48.730;9.136;2022-11-15T05:45:09;9.10;99.90
31113;DHT22;17763;48.730;9.136;2022-11-15T05:47:36;9.10;99.90
31113;DHT22;17763;48.730;9.136;2022-11-15T05:50:03;9.10;99.90
31113;DHT22;17763;48.730;9.136;2022-11-15T05:52:31;9.10;99.90
31113;DHT22;17763;48.730;9.136;2022-11-15T05:55:02;9.10;99.90
31113;DHT22;17763;48.730;9.136;2022-11-15T05:57:30;9.10;99.90
31113;DHT22;17763;48.730;9.136;2022-11-15T05:59:56;9.10;99.90
31113;DHT22;17763;48.730;9.136;2022-11-15T06:02:22;9.10;99.90
31113;DHT22;17763;48.730;9.136;2022-11-15T06:04:48;9.10;99.90
31113;DHT22;17763;48.730;9.136;2022-11-15T06:07:14;9.20;99.90
31113;DHT22;17763;48.730;9.136;2022-11-15T06:09:42;9.20;99.90
31113;DHT22;17763;48.730;9.136;2022-11-15T06:12:07;9.10;99.90
31113;DHT22;17763;48.730;9.136;2022-11-15T06:14:33;9.10;99.90
31113;DHT22;17763;48.730;9.136;2022-11-15T06:16:59;9.10;99.90
31113;DHT22;17763;48.730;9.136;2022-11-15T06:19:27;9.10;99.90
31113;DHT22;17763;48.730;9.136;2022-11-15T06:21:53;9.10;99.90
31113;DHT22;17763;48.730;9.136;2022-11-15T06:24:18;9.10;99.90
31113;DHT22;17763;48.730;9.136;2022-11-15T06:26:44;9.10;99.90
31113;DHT22;17763;48.730;9.136;2022-11-15T06:29:12;9.00;99.90
31113;DHT22;17763;48.730;9.136;2022-11-15T06:31:38;9.00;99.90
31113;DHT22;17763;48.730;9.136;2022-11-15T06:34:06;9.00;99.90
31113;DHT22;17763;48.730;9.136;2022-11-15T06:36:34;9.00;99.90
31113;DHT22;17763;48.730;9.136;2022-11-15T06:39:00;9.00;99.90
31113;DHT22;17763;48.730;9.136;2022-11-15T06:41:33;9.00;99.90
31113;DHT22;17763;48.730;9.136;2022-11-15T06:43:59;9.00;99.90
31113;DHT22;17763;48.730;9.136;2022-11-15T06:46:27;9.00;99.90
31113;DHT22;17763;48.730;9.136;2022-11-15T06:48:53;9.00;99.90
31113;DHT22;17763;48.730;9.136;2022-11-15T06:51:23;9.00;99.90
31113;DHT22;17763;48.730;9.136;2022-11-15T06:53:49;9.00;99.90
31113;DHT22;17763;48.730;9.136;2022-11-15T06:56:15;9.10;99.90
31113;DHT22;17763;48.730;9.136;2022-11-15T06:58:41;9.10;99.90
31113;DHT22;17763;48.730;9.136;2022-11-15T07:01:09;9.00;99.90
31113;DHT22;17763;48.730;9.136;2022-11-15T07:03:36;9.00;99.90
31113;DHT22;17763;48.730;9.136;2022-11-15T07:06:02;9.00;99.90
31113;DHT22;17763;48.730;9.136;2022-11-15T07:08:32;9.00;99.90
31113;DHT22;17763;48.730;9.136;2022-11-15T07:11:00;9.00;99.90
31113;DHT22;17763;48.730;9.136;2022-11-15T07:13:30;9.00;99.90
31113;DHT22;17763;48.730;9.136;2022-11-15T07:16:01;9.00;99.90
31113;DHT22;17763;48.730;9.136;2022-11-15T07:18:27;9.10;99.90
31113;DHT22;17763;48.730;9.136;2022-11-15T07:20:53;9.10;99.90
31113;DHT22;17763;48.730;9.136;2022-11-15T07:23:19;9.10;99.90
31113;DHT22;17763;48.730;9.136;2022-11-15T07:25:46;9.10;99.90
31113;DHT22;17763;48.730;9.136;2022-11-15T07:28:14;9.10;99.90
31113;DHT22;17763;48.730;9.136;2022-11-15T07:30:40;9.10;99.90
31113;DHT22;17763;48.730;9.136;2022-11-15T07:33:06;9.10;99.90
31113;DHT22;17763;48.730;9.136;2022-11-15T07:35:32;9.20;99.90
31113;DHT22;17763;48.730;9.136;2022-11-15T07:37:59;9.20;99.90
31113;DHT22;17763;48.730;9.136;2022-11-15T07:40:27;9.20;99.90
31113;DHT22;17763;48.730;9.136;2022-11-15T07:42:59;9.20;99.90
31113;DHT22;17763;48.730;9.136;2022-11-15T07:45:25;9.30;99.90
31113;DHT22;17763;48.730;9.136;2022-11-15T07:47:52;9.30;99.90
31113;DHT22;17763;48.730;9.136;2022-11-15T07:50:18;9.30;99.90
31113;DHT22;17763;48.730;9.136;2022-11-15T07:52:46;9.40;99.90
31113;DHT22;17763;48.730;9.136;2022-11-15T07:55:14;9.50;99.90
31113;DHT22;17763;48.730;9.136;2022-11-15T07:57:42;9.50;99.90
31113;DHT22;17763;48.730;9.136;2022-11-15T08:00:11;9.50;99.90
31113;DHT22;17763;48.730;9.136;2022-11-15T08:02:36;9.60;99.90
31113;DHT22;17763;48.730;9.136;2022-11-15T08:05:02;9.70;99.90
31113;DHT22;17763;48.730;9.136;2022-11-15T08:07:29;9.70;99.90
31113;DHT22;17763;48.730;9.136;2022-11-15T08:09:55;9.80;99.90
31113;DHT22;17763;48.730;9.136;2022-11-15T08:12:22;9.80;99.90
31113;DHT22;17763;48.730;9.136;2022-11-15T08:14:47;9.90;99.90
31113;DHT22;17763;48.730;9.136;2022-11-15T08:17:13;9.90;99.90
31113;DHT22;17763;48.730;9.136;2022-11-15T08:19:39;9.90;99.90
31113;DHT22;17763;48.730;9.136;2022-11-15T08:22:07;10.00;99.90
31113;DHT22;17763;48.730;9.136;2022-11-15T08:24:33;10.10;99.90
31113;DHT22;17763;48.730;9.136;2022-11-15T08:26:59;10.10;99.90
31113;DHT22;17763;48.730;9.136;2022-11-15T08:29:25;10.10;99.90
31113;DHT22;17763;48.730;9.136;2022-11-15T08:31:54;10.20;99.90
31113;DHT22;17763;48.730;9.136;2022-11-15T08:34:22;10.20;99.90
31113;DHT22;17763;48.730;9.136;2022-11-15T08:36:50;10.30;99.90
31113;DHT22;17763;48.730;9.136;2022-11-15T08:39:16;10.30;99.90
31113;DHT22;17763;48.730;9.136;2022-11-15T08:41:42;10.40;99.90
31113;DHT22;17763;48.730;9.136;2022-11-15T08:44:12;10.40;99.90
31113;DHT22;17763;48.730;9.136;2022-11-15T08:46:37;10.40;99.90
31113;DHT22;17763;48.730;9.136;2022-11-15T08:49:03;10.50;99.90
31113;DHT22;17763;48.730;9.136;2022-11-15T08:51:29;10.50;99.90
31113;DHT22;17763;48.730;9.136;2022-11-15T08:53:54;10.60;99.90
31113;DHT22;17763;48.730;9.136;2022-11-15T08:56:20;10.70;99.90
31113;DHT22;17763;48.730;9.136;2022-11-15T08:58:46;10.70;99.90
31113;DHT22;17763;48.730;9.136;2022-11-15T09:01:17;10.80;99.90
31113;DHT22;17763;48.730;9.136;2022-11-15T09:03:43;10.90;99.90
31113;DHT22;17763;48.730;9.136;2022-11-15T09:06:09;10.90;99.90
31113;DHT22;17763;48.730;9.136;2022-11-15T09:08:35;11.00;99.90
31113;DHT22;17763;48.730;9.136;2022-11-15T09:11:08;11.10;99.90
31113;DHT22;17763;48.730;9.136;2022-11-15T09:13:39;11.10;99.90
31113;DHT22;17763;48.730;9.136;2022-11-15T09:16:05;11.20;99.90
31113;DHT22;17763;48.730;9.136;2022-11-15T09:18:31;11.20;99.90
31113;DHT22;17763;48.730;9.136;2022-11-15T09:20:58;11.30;99.90
31113;DHT22;17763;48.730;9.136;2022-11-15T09:23:24;11.40;99.90
31113;DHT22;17763;48.730;9.136;2022-11-15T09:25:57;11.40;99.90
31113;DHT22;17763;48.730;9.136;2022-11-15T09:28:23;11.50;99.90
31113;DHT22;17763;48.730;9.136;2022-11-15T09:30:49;11.50;99.90
31113;DHT22;17763;48.730;9.136;2022-11-15T09:33:14;11.60;99.90
31113;DHT22;17763;48.730;9.136;2022-11-15T09:35:40;11.70;99.90
31113;DHT22;17763;48.730;9.136;2022-11-15T09:38:08;11.70;99.90
31113;DHT22;17763;48.730;9.136;2022-11-15T09:40:36;11.80;99.90
31113;DHT22;17763;48.730;9.136;2022-11-15T09:43:49;11.80;99.90
31113;DHT22;17763;48.730;9.136;2022-11-15T09:46:01;11.90;99.90
31113;DHT22;17763;48.730;9.136;2022-11-15T09:51:42;12.00;99.90
31113;DHT22;17763;48.730;9.136;2022-11-15T09:54:35;12.10;99.90
31113;DHT22;17763;48.730;9.136;2022-11-15T09:57:10;12.10;99.90
31113;DHT22;17763;48.730;9.136;2022-11-15T09:59:51;12.20;99.90
31113;DHT22;17763;48.730;9.136;2022-11-15T10:05:12;12.30;99.90
31113;DHT22;17763;48.730;9.136;2022-11-15T10:10:34;12.40;99.90
31113;DHT22;17763;48.730;9.136;2022-11-15T10:13:06;12.50;99.90
31113;DHT22;17763;48.730;9.136;2022-11-15T10:15:35;12.50;99.90
31113;DHT22;17763;48.730;9.136;2022-11-15T10:18:09;12.60;99.90
31113;DHT22;17763;48.730;9.136;2022-11-15T10:21:02;12.60;99.90
31113;DHT22;17763;48.730;9.136;2022-11-15T10:23:34;12.70;99.90
31113;DHT22;17763;48.730;9.136;2022-11-15T10:26:00;12.70;99.90
31113;DHT22;17763;48.730;9.136;2022-11-15T10:28:28;12.70;99.90
31113;DHT22;17763;48.730;9.136;2022-11-15T10:30:58;12.80;99.90
31113;DHT22;17763;48.730;9.136;2022-11-15T10:41:22;12.90;99.90
31113;DHT22;17763;48.730;9.136;2022-11-15T10:46:33;13.00;99.90
31113;DHT22;17763;48.730;9.136;2022-11-15T10:49:20;13.00;99.90
31113;DHT22;17763;48.730;9.136;2022-11-15T10:51:53;13.10;99.90
31113;DHT22;17763;48.730;9.136;2022-11-15T10:54:35;13.10;99.90
31113;DHT22;17763;48.730;9.136;2022-11-15T10:57:06;13.10;99.90
31113;DHT22;17763;48.730;9.136;2022-11-15T10:59:33;13.10;99.90
31113;DHT22;17763;48.730;9.136;2022-11-15T11:02:01;13.10;99.90
31113;DHT22;17763;48.730;9.136;2022-11-15T11:04:30;13.20;99.90
31113;DHT22;17763;48.730;9.136;2022-11-15T11:07:29;13.20;99.90
31113;DHT22;17763;48.730;9.136;2022-11-15T11:10:16;13.20;99.90
31113;DHT22;17763;48.730;9.136;2022-11-15T11:12:42;13.20;99.90
31113;DHT22;17763;48.730;9.136;2022-11-15T11:15:13;13.20;99.90
31113;DHT22;17763;48.730;9.136;2022-11-15T11:20:33;13.30;99.90
31113;DHT22;17763;48.730;9.136;2022-11-15T11:33:31;13.40;99.90
31113;DHT22;17763;48.730;9.136;2022-11-15T11:36:26;13.40;99.90
31113;DHT22;17763;48.730;9.136;2022-11-15T11:47:24;13.50;99.90
31113;DHT22;17763;48.730;9.136;2022-11-15T11:49:59;13.50;99.90
31113;DHT22;17763;48.730;9.136;2022-11-15T11:52:33;13.50;99.90
31113;DHT22;17763;48.730;9.136;2022-11-15T11:55:12;13.60;99.90
31113;DHT22;17763;48.730;9.136;2022-11-15T12:00:24;13.60;99.90
31113;DHT22;17763;48.730;9.136;2022-11-15T12:03:07;13.60;99.90
31113;DHT22;17763;48.730;9.136;2022-11-15T12:05:46;13.60;99.90
31113;DHT22;17763;48.730;9.136;2022-11-15T12:10:57;13.70;99.90
31113;DHT22;17763;48.730;9.136;2022-11-15T12:13:26;13.80;99.90
31113;DHT22;17763;48.730;9.136;2022-11-15T12:18:53;13.80;99.90
31113;DHT22;17763;48.730;9.136;2022-11-15T12:21:24;13.90;99.90
31113;DHT22;17763;48.730;9.136;2022-11-15T12:23:59;13.90;99.90
31113;DHT22;17763;48.730;9.136;2022-11-15T12:26:31;13.90;99.90
31113;DHT22;17763;48.730;9.136;2022-11-15T12:29:11;13.90;99.90
31113;DHT22;17763;48.730;9.136;2022-11-15T12:31:45;13.90;99.90
31113;DHT22;17763;48.730;9.136;2022-11-15T12:36:55;13.90;99.90
31113;DHT22;17763;48.730;9.136;2022-11-15T12:44:58;14.00;99.90
31113;DHT22;17763;48.730;9.136;2022-11-15T12:47:26;13.90;99.90
31113;DHT22;17763;48.730;9.136;2022-11-15T12:49:54;13.90;99.90
31113;DHT22;17763;48.730;9.136;2022-11-15T12:52:22;14.00;99.90
31113;DHT22;17763;48.730;9.136;2022-11-15T12:54:56;13.90;99.90
31113;DHT22;17763;48.730;9.136;2022-11-15T13:30:48;13.90;99.90
31113;DHT22;17763;48.730;9.136;2022-11-15T13:36:04;13.80;99.90
31113;DHT22;17763;48.730;9.136;2022-11-15T13:38:33;13.90;99.90
31113;DHT22;17763;48.730;9.136;2022-11-15T13:41:10;13.80;99.90
31113;DHT22;17763;48.730;9.136;2022-11-15T13:43:36;13.80;99.90
31113;DHT22;17763;48.730;9.136;2022-11-15T13:48:56;13.80;99.90
31113;DHT22;17763;48.730;9.136;2022-11-15T13:51:42;13.80;99.90
31113;DHT22;17763;48.730;9.136;2022-11-15T13:54:14;13.80;99.90
31113;DHT22;17763;48.730;9.136;2022-11-15T13:57:24;13.70;99.90
31113;DHT22;17763;48.730;9.136;2022-11-15T13:59:57;13.70;99.90
31113;DHT22;17763;48.730;9.136;2022-11-15T14:02:34;13.60;99.90
31113;DHT22;17763;48.730;9.136;2022-11-15T14:05:11;13.60;99.90
31113;DHT22;17763;48.730;9.136;2022-11-15T14:07:56;13.60;99.90
31113;DHT22;17763;48.730;9.136;2022-11-15T14:10:29;13.60;99.90
31113;DHT22;17763;48.730;9.136;2022-11-15T14:12:56;13.60;99.90
31113;DHT22;17763;48.730;9.136;2022-11-15T14:15:34;13.60;99.90
31113;DHT22;17763;48.730;9.136;2022-11-15T14:18:01;13.50;99.90
31113;DHT22;17763;48.730;9.136;2022-11-15T14:20:33;13.50;99.90
31113;DHT22;17763;48.730;9.136;2022-11-15T14:23:26;13.50;99.90
31113;DHT22;17763;48.730;9.136;2022-11-15T14:25:56;13.40;99.90
31113;DHT22;17763;48.730;9.136;2022-11-15T14:30:51;13.40;99.90
31113;DHT22;17763;48.730;9.136;2022-11-15T14:33:34;13.40;99.90
31113;DHT22;17763;48.730;9.136;2022-11-15T14:36:27;13.40;99.90
31113;DHT22;17763;48.730;9.136;2022-11-15T14:38:55;13.30;99.90
31113;DHT22;17763;48.730;9.136;2022-11-15T14:41:25;13.40;99.90
31113;DHT22;17763;48.730;9.136;2022-11-15T14:43:52;13.40;99.90
31113;DHT22;17763;48.730;9.136;2022-11-15T14:46:18;13.30;99.90
31113;DHT22;17763;48.730;9.136;2022-11-15T14:48:45;13.30;99.90
31113;DHT22;17763;48.730;9.136;2022-11-15T14:51:16;13.20;99.90
31113;DHT22;17763;48.730;9.136;2022-11-15T14:53:42;13.20;99.90
31113;DHT22;17763;48.730;9.136;2022-11-15T14:56:09;13.20;99.90
31113;DHT22;17763;48.730;9.136;2022-11-15T14:58:34;13.20;99.90
31113;DHT22;17763;48.730;9.136;2022-11-15T15:01:12;13.10;99.90
31113;DHT22;17763;48.730;9.136;2022-11-15T15:03:38;13.10;99.90
31113;DHT22;17763;48.730;9.136;2022-11-15T15:06:04;13.10;99.90
31113;DHT22;17763;48.730;9.136;2022-11-15T15:08:29;13.10;99.90
31113;DHT22;17763;48.730;9.136;2022-11-15T15:10:55;13.10;99.90
31113;DHT22;17763;48.730;9.136;2022-11-15T15:13:22;13.00;99.90
31113;DHT22;17763;48.730;9.136;2022-11-15T15:15:50;13.10;99.90
31113;DHT22;17763;48.730;9.136;2022-11-15T15:18:16;13.00;99.90
31113;DHT22;17763;48.730;9.136;2022-11-15T15:20:43;13.00;99.90
31113;DHT22;17763;48.730;9.136;2022-11-15T15:23:16;13.00;99.90
31113;DHT22;17763;48.730;9.136;2022-11-15T15:25:42;12.90;99.90
31113;DHT22;17763;48.730;9.136;2022-11-15T15:28:09;13.00;99.90
31113;DHT22;17763;48.730;9.136;2022-11-15T15:30:34;12.90;99.90
31113;DHT22;17763;48.730;9.136;2022-11-15T15:33:02;12.90;99.90
31113;DHT22;17763;48.730;9.136;2022-11-15T15:35:30;12.80;99.90
31113;DHT22;17763;48.730;9.136;2022-11-15T15:37:57;12.80;99.90
31113;DHT22;17763;48.730;9.136;2022-11-15T15:40:24;12.80;99.90
31113;DHT22;17763;48.730;9.136;2022-11-15T15:42:50;12.80;99.90
31113;DHT22;17763;48.730;9.136;2022-11-15T15:45:17;12.80;99.90
31113;DHT22;17763;48.730;9.136;2022-11-15T15:47:44;12.70;99.90
31113;DHT22;17763;48.730;9.136;2022-11-15T15:52:48;12.70;99.90
31113;DHT22;17763;48.730;9.136;2022-11-15T15:55:14;12.70;99.90
31113;DHT22;17763;48.730;9.136;2022-11-15T15:57:42;12.70;99.90
31113;DHT22;17763;48.730;9.136;2022-11-15T16:00:09;12.70;99.90
31113;DHT22;17763;48.730;9.136;2022-11-15T16:02:35;12.70;99.90
31113;DHT22;17763;48.730;9.136;2022-11-15T16:05:00;12.60;99.90
31113;DHT22;17763;48.730;9.136;2022-11-15T16:07:26;12.60;99.90
31113;DHT22;17763;48.730;9.136;2022-11-15T16:09:55;12.60;99.90
31113;DHT22;17763;48.730;9.136;2022-11-15T16:12:34;12.60;99.90
31113;DHT22;17763;48.730;9.136;2022-11-15T16:15:00;12.60;99.90
31113;DHT22;17763;48.730;9.136;2022-11-15T16:17:31;12.60;99.90
31113;DHT22;17763;48.730;9.136;2022-11-15T16:19:57;12.50;99.90
31113;DHT22;17763;48.730;9.136;2022-11-15T16:22:25;12.50;99.90
31113;DHT22;17763;48.730;9.136;2022-11-15T16:24:51;12.50;99.90
31113;DHT22;17763;48.730;9.136;2022-11-15T16:27:20;12.50;99.90
31113;DHT22;17763;48.730;9.136;2022-11-15T16:29:46;12.50;99.90
31113;DHT22;17763;48.730;9.136;2022-11-15T16:32:17;12.50;99.90
31113;DHT22;17763;48.730;9.136;2022-11-15T16:34:43;12.50;99.90
31113;DHT22;17763;48.730;9.136;2022-11-15T16:37:23;12.50;99.90
31113;DHT22;17763;48.730;9.136;2022-11-15T16:39:49;12.50;99.90
31113;DHT22;17763;48.730;9.136;2022-11-15T16:42:15;12.50;99.90
31113;DHT22;17763;48.730;9.136;2022-11-15T16:44:40;12.40;99.90
31113;DHT22;17763;48.730;9.136;2022-11-15T16:47:18;12.40;99.90
31113;DHT22;17763;48.730;9.136;2022-11-15T16:49:47;12.40;99.90
31113;DHT22;17763;48.730;9.136;2022-11-15T16:52:16;12.40;99.90
31113;DHT22;17763;48.730;9.136;2022-11-15T16:54:41;12.40;99.90
31113;DHT22;17763;48.730;9.136;2022-11-15T16:57:09;12.40;99.90
31113;DHT22;17763;48.730;9.136;2022-11-15T16:59:35;12.40;99.90
31113;DHT22;17763;48.730;9.136;2022-11-15T17:02:00;12.40;99.90
31113;DHT22;17763;48.730;9.136;2022-11-15T17:04:26;12.40;99.90
31113;DHT22;17763;48.730;9.136;2022-11-15T17:06:57;12.40;99.90
31113;DHT22;17763;48.730;9.136;2022-11-15T17:09:23;12.40;99.90
31113;DHT22;17763;48.730;9.136;2022-11-15T17:11:49;12.40;99.90
31113;DHT22;17763;48.730;9.136;2022-11-15T17:14:15;12.40;99.90
31113;DHT22;17763;48.730;9.136;2022-11-15T17:16:41;12.30;99.90
31113;DHT22;17763;48.730;9.136;2022-11-15T17:19:19;12.40;99.90
31113;DHT22;17763;48.730;9.136;2022-11-15T17:21:46;12.40;99.90
31113;DHT22;17763;48.730;9.136;2022-11-15T17:24:13;12.30;99.90
31113;DHT22;17763;48.730;9.136;2022-11-15T17:26:39;12.30;99.90
31113;DHT22;17763;48.730;9.136;2022-11-15T17:29:05;12.30;99.90
31113;DHT22;17763;48.730;9.136;2022-11-15T17:31:36;12.30;99.90
31113;DHT22;17763;48.730;9.136;2022-11-15T17:34:02;12.30;99.90
31113;DHT22;17763;48.730;9.136;2022-11-15T17:36:29;12.30;99.90
31113;DHT22;17763;48.730;9.136;2022-11-15T17:38:57;12.30;99.90
31113;DHT22;17763;48.730;9.136;2022-11-15T17:41:22;12.30;99.90
31113;DHT22;17763;48.730;9.136;2022-11-15T17:43:50;12.30;99.90
31113;DHT22;17763;48.730;9.136;2022-11-15T17:46:18;12.30;99.90
31113;DHT22;17763;48.730;9.136;2022-11-15T17:48:45;12.30;99.90
31113;DHT22;17763;48.730;9.136;2022-11-15T17:51:15;12.30;99.90
31113;DHT22;17763;48.730;9.136;2022-11-15T17:53:45;12.30;99.90
31113;DHT22;17763;48.730;9.136;2022-11-15T17:56:12;12.30;99.90
31113;DHT22;17763;48.730;9.136;2022-11-15T17:58:39;12.20;99.90
31113;DHT22;17763;48.730;9.136;2022-11-15T18:01:27;12.20;99.90
31113;DHT22;17763;48.730;9.136;2022-11-15T18:03:54;12.20;99.90
31113;DHT22;17763;48.730;9.136;2022-11-15T18:06:23;12.20;99.90